sensor_id;sensor_type;location;lat;lon;timestamp;temperature;humidity
43285;DHT22;28880;48.844;9.030;2022-09-24T00:01:58;11.30;99.90
43285;DHT22;28880;48.844;9.030;2022-09-24T00:04:25;11.30;99.90
43285;DHT22;28880;48.844;9.030;2022-09-24T00:06:51;11.40;99.90
43285;DHT22;28880;48.844;9.030;2022-09-24T00:09:19;11.40;99.90
43285;DHT22;28880;48.844;9.030;2022-09-24T00:11:47;11.40;99.90
43285;DHT22;28880;48.844;9.030;2022-09-24T00:14:15;11.40;99.90
43285;DHT22;28880;48.844;9.030;2022-09-24T00:16:42;11.40;99.90
43285;DHT22;28880;48.844;9.030;2022-09-24T00:19:09;11.40;99.90
43285;DHT22;28880;48.844;9.030;2022-09-24T00:21:36;11.40;99.90
43285;DHT22;28880;48.844;9.030;2022-09-24T00:24:08;11.40;99.90
43285;DHT22;28880;48.844;9.030;2022-09-24T00:26:34;11.40;99.90
43285;DHT22;28880;48.844;9.030;2022-09-24T00:29:20;11.40;99.90
43285;DHT22;28880;48.844;9.030;2022-09-24T00:31:47;11.50;99.90
43285;DHT22;28880;48.844;9.030;2022-09-24T00:34:12;11.50;99.90
43285;DHT22;28880;48.844;9.030;2022-09-24T00:36:38;11.50;99.90
43285;DHT22;28880;48.844;9.030;2022-09-24T00:39:04;11.50;99.90
43285;DHT22;28880;48.844;9.030;2022-09-24T00:41:32;11.50;99.90
43285;DHT22;28880;48.844;9.030;2022-09-24T00:43:58;11.50;99.90
43285;DHT22;28880;48.844;9.030;2022-09-24T00:46:43;11.50;99.90
43285;DHT22;28880;48.844;9.030;2022-09-24T00:49:13;11.50;99.90
43285;DHT22;28880;48.844;9.030;2022-09-24T00:51:42;11.50;99.90
43285;DHT22;28880;48.844;9.030;2022-09-24T00:54:14;11.50;99.90
43285;DHT22;28880;48.844;9.030;2022-09-24T00:56:41;11.50;99.90
43285;DHT22;28880;48.844;9.030;2022-09-24T00:59:10;11.50;99.90
43285;DHT22;28880;48.844;9.030;2022-09-24T01:01:37;11.40;99.90
43285;DHT22;28880;48.844;9.030;2022-09-24T01:04:03;11.40;99.90
43285;DHT22;28880;48.844;9.030;2022-09-24T01:06:30;11.40;99.90
43285;DHT22;28880;48.844;9.030;2022-09-24T01:08:57;11.50;99.90
43285;DHT22;28880;48.844;9.030;2022-09-24T01:20:02;11.30;99.90
43285;DHT22;28880;48.844;9.030;2022-09-24T01:28:28;11.20;99.90
43285;DHT22;28880;48.844;9.030;2022-09-24T01:31:02;11.20;99.90
43285;DHT22;28880;48.844;9.030;2022-09-24T01:33:31;11.20;99.90
43285;DHT22;28880;48.844;9.030;2022-09-24T01:36:00;11.10;99.90
43285;DHT22;28880;48.844;9.030;2022-09-24T01:38:34;11.10;99.90
43285;DHT22;28880;48.844;9.030;2022-09-24T01:41:03;11.10;99.90
43285;DHT22;28880;48.844;9.030;2022-09-24T01:43:31;11.10;99.90
43285;DHT22;28880;48.844;9.030;2022-09-24T01:46:00;11.00;99.90
43285;DHT22;28880;48.844;9.030;2022-09-24T01:48:27;11.00;99.90
43285;DHT22;28880;48.844;9.030;2022-09-24T01:51:05;11.00;99.90
43285;DHT22;28880;48.844;9.030;2022-09-24T01:53:41;11.00;99.90
43285;DHT22;28880;48.844;9.030;2022-09-24T01:56:14;11.00;99.90
43285;DHT22;28880;48.844;9.030;2022-09-24T01:59:03;11.00;99.90
43285;DHT22;28880;48.844;9.030;2022-09-24T02:01:48;10.90;99.90
43285;DHT22;28880;48.844;9.030;2022-09-24T02:04:17;11.00;99.90
43285;DHT22;28880;48.844;9.030;2022-09-24T02:07:09;11.00;99.90
43285;DHT22;28880;48.844;9.030;2022-09-24T02:09:40;10.90;99.90
43285;DHT22;28880;48.844;9.030;2022-09-24T02:12:35;10.90;99.90
43285;DHT22;28880;48.844;9.030;2022-09-24T02:15:09;10.90;99.90
43285;DHT22;28880;48.844;9.030;2022-09-24T02:17:37;10.90;99.90
43285;DHT22;28880;48.844;9.030;2022-09-24T02:20:12;10.90;99.90
43285;DHT22;28880;48.844;9.030;2022-09-24T02:22:38;10.80;99.90
43285;DHT22;28880;48.844;9.030;2022-09-24T02:25:08;10.80;99.90
43285;DHT22;28880;48.844;9.030;2022-09-24T02:27:34;10.80;99.90
43285;DHT22;28880;48.844;9.030;2022-09-24T02:30:01;10.80;99.90
43285;DHT22;28880;48.844;9.030;2022-09-24T02:32:29;10.80;99.90
43285;DHT22;28880;48.844;9.030;2022-09-24T02:34:59;10.80;99.90
43285;DHT22;28880;48.844;9.030;2022-09-24T02:37:26;10.90;99.90
43285;DHT22;28880;48.844;9.030;2022-09-24T02:39:51;10.90;99.90
43285;DHT22;28880;48.844;9.030;2022-09-24T02:42:18;10.90;99.90
43285;DHT22;28880;48.844;9.030;2022-09-24T02:44:44;10.90;99.90
43285;DHT22;28880;48.844;9.030;2022-09-24T02:47:12;10.90;99.90
43285;DHT22;28880;48.844;9.030;2022-09-24T02:49:37;10.90;99.90
43285;DHT22;28880;48.844;9.030;2022-09-24T02:52:03;10.90;99.90
43285;DHT22;28880;48.844;9.030;2022-09-24T02:54:29;10.90;99.90
43285;DHT22;28880;48.844;9.030;2022-09-24T02:56:55;10.90;99.90
43285;DHT22;28880;48.844;9.030;2022-09-24T02:59:21;11.00;99.90
43285;DHT22;28880;48.844;9.030;2022-09-24T03:01:47;11.00;99.90
43285;DHT22;28880;48.844;9.030;2022-09-24T03:04:14;11.00;99.90
43285;DHT22;28880;48.844;9.030;2022-09-24T03:06:40;11.00;99.90
43285;DHT22;28880;48.844;9.030;2022-09-24T03:09:05;10.90;99.90
43285;DHT22;28880;48.844;9.030;2022-09-24T03:11:31;10.90;99.90
43285;DHT22;28880;48.844;9.030;2022-09-24T03:13:57;11.00;99.90
43285;DHT22;28880;48.844;9.030;2022-09-24T03:16:23;10.90;99.90
43285;DHT22;28880;48.844;9.030;2022-09-24T03:18:49;10.90;99.90
43285;DHT22;28880;48.844;9.030;2022-09-24T03:21:17;10.90;99.90
43285;DHT22;28880;48.844;9.030;2022-09-24T03:23:44;10.90;99.90
43285;DHT22;28880;48.844;9.030;2022-09-24T03:26:09;10.90;99.90
43285;DHT22;28880;48.844;9.030;2022-09-24T03:28:35;10.80;99.90
43285;DHT22;28880;48.844;9.030;2022-09-24T03:31:01;10.80;99.90
43285;DHT22;28880;48.844;9.030;2022-09-24T03:34:01;10.80;99.90
43285;DHT22;28880;48.844;9.030;2022-09-24T03:36:23;10.80;99.90
43285;DHT22;28880;48.844;9.030;2022-09-24T03:38:51;10.80;99.90
43285;DHT22;28880;48.844;9.030;2022-09-24T03:41:18;10.70;99.90
43285;DHT22;28880;48.844;9.030;2022-09-24T03:43:44;10.70;99.90
43285;DHT22;28880;48.844;9.030;2022-09-24T03:46:11;10.80;99.90
43285;DHT22;28880;48.844;9.030;2022-09-24T03:48:38;10.70;99.90
43285;DHT22;28880;48.844;9.030;2022-09-24T03:51:05;10.80;99.90
43285;DHT22;28880;48.844;9.030;2022-09-24T03:53:31;10.80;99.90
43285;DHT22;28880;48.844;9.030;2022-09-24T03:55:57;10.80;99.90
43285;DHT22;28880;48.844;9.030;2022-09-24T03:58:24;10.80;99.90
43285;DHT22;28880;48.844;9.030;2022-09-24T04:00:53;10.80;99.90
43285;DHT22;28880;48.844;9.030;2022-09-24T04:03:20;10.80;99.90
43285;DHT22;28880;48.844;9.030;2022-09-24T04:05:46;10.80;99.90
43285;DHT22;28880;48.844;9.030;2022-09-24T04:08:12;10.90;99.90
43285;DHT22;28880;48.844;9.030;2022-09-24T04:10:38;10.90;99.90
43285;DHT22;28880;48.844;9.030;2022-09-24T04:13:04;10.90;99.90
43285;DHT22;28880;48.844;9.030;2022-09-24T04:15:29;10.90;99.90
43285;DHT22;28880;48.844;9.030;2022-09-24T04:17:56;10.90;99.90
43285;DHT22;28880;48.844;9.030;2022-09-24T04:20:24;10.90;99.90
43285;DHT22;28880;48.844;9.030;2022-09-24T04:22:52;10.90;99.90
43285;DHT22;28880;48.844;9.030;2022-09-24T04:25:18;10.90;99.90
43285;DHT22;28880;48.844;9.030;2022-09-24T04:27:45;10.90;99.90
43285;DHT22;28880;48.844;9.030;2022-09-24T04:30:12;10.90;99.90
43285;DHT22;28880;48.844;9.030;2022-09-24T04:32:42;10.90;99.90
43285;DHT22;28880;48.844;9.030;2022-09-24T04:35:08;10.90;99.90
43285;DHT22;28880;48.844;9.030;2022-09-24T04:37:34;11.00;99.90
43285;DHT22;28880;48.844;9.030;2022-09-24T04:40:01;11.00;99.90
43285;DHT22;28880;48.844;9.030;2022-09-24T04:42:27;11.00;99.90
43285;DHT22;28880;48.844;9.030;2022-09-24T04:44:53;11.00;99.90
43285;DHT22;28880;48.844;9.030;2022-09-24T04:47:19;11.00;99.90
43285;DHT22;28880;48.844;9.030;2022-09-24T04:49:44;11.00;99.90
43285;DHT22;28880;48.844;9.030;2022-09-24T04:52:13;11.00;99.90
43285;DHT22;28880;48.844;9.030;2022-09-24T04:54:40;10.90;99.90
43285;DHT22;28880;48.844;9.030;2022-09-24T04:57:14;10.90;99.90
43285;DHT22;28880;48.844;9.030;2022-09-24T04:59:41;10.90;99.90
43285;DHT22;28880;48.844;9.030;2022-09-24T05:02:06;10.90;99.90
43285;DHT22;28880;48.844;9.030;2022-09-24T05:04:36;10.90;99.90
43285;DHT22;28880;48.844;9.030;2022-09-24T05:07:03;10.90;99.90
43285;DHT22;28880;48.844;9.030;2022-09-24T05:09:29;10.90;99.90
43285;DHT22;28880;48.844;9.030;2022-09-24T05:11:55;10.90;99.90
43285;DHT22;28880;48.844;9.030;2022-09-24T05:14:21;10.90;99.90
43285;DHT22;28880;48.844;9.030;2022-09-24T05:16:47;10.90;99.90
43285;DHT22;28880;48.844;9.030;2022-09-24T05:19:12;10.90;99.90
43285;DHT22;28880;48.844;9.030;2022-09-24T05:21:38;10.90;99.90
43285;DHT22;28880;48.844;9.030;2022-09-24T05:24:03;10.90;99.90
43285;DHT22;28880;48.844;9.030;2022-09-24T05:26:29;10.90;99.90
43285;DHT22;28880;48.844;9.030;2022-09-24T05:29:13;10.90;99.90
43285;DHT22;28880;48.844;9.030;2022-09-24T05:31:38;10.90;99.90
43285;DHT22;28880;48.844;9.030;2022-09-24T05:34:04;10.90;99.90
43285;DHT22;28880;48.844;9.030;2022-09-24T05:36:29;11.00;99.90
43285;DHT22;28880;48.844;9.030;2022-09-24T05:38:55;11.00;99.90
43285;DHT22;28880;48.844;9.030;2022-09-24T05:41:21;11.00;99.90
43285;DHT22;28880;48.844;9.030;2022-09-24T05:43:46;11.00;99.90
43285;DHT22;28880;48.844;9.030;2022-09-24T05:46:13;11.00;99.90
43285;DHT22;28880;48.844;9.030;2022-09-24T05:48:39;11.00;99.90
43285;DHT22;28880;48.844;9.030;2022-09-24T05:51:04;11.00;99.90
43285;DHT22;28880;48.844;9.030;2022-09-24T05:53:30;11.10;99.90
43285;DHT22;28880;48.844;9.030;2022-09-24T05:55:56;11.10;99.90
43285;DHT22;28880;48.844;9.030;2022-09-24T05:58:22;11.10;99.90
43285;DHT22;28880;48.844;9.030;2022-09-24T06:00:49;11.10;99.90
43285;DHT22;28880;48.844;9.030;2022-09-24T06:03:16;11.10;99.90
43285;DHT22;28880;48.844;9.030;2022-09-24T06:05:49;11.20;99.90
43285;DHT22;28880;48.844;9.030;2022-09-24T06:08:16;11.20;99.90
43285;DHT22;28880;48.844;9.030;2022-09-24T06:10:43;11.20;99.90
43285;DHT22;28880;48.844;9.030;2022-09-24T06:13:17;11.30;99.90
43285;DHT22;28880;48.844;9.030;2022-09-24T06:15:44;11.30;99.90
43285;DHT22;28880;48.844;9.030;2022-09-24T06:18:10;11.30;99.90
43285;DHT22;28880;48.844;9.030;2022-09-24T06:20:36;11.40;99.90
43285;DHT22;28880;48.844;9.030;2022-09-24T06:23:03;11.40;99.90
43285;DHT22;28880;48.844;9.030;2022-09-24T06:25:29;11.40;99.90
43285;DHT22;28880;48.844;9.030;2022-09-24T06:28:03;11.50;99.90
43285;DHT22;28880;48.844;9.030;2022-09-24T06:30:32;11.50;99.90
43285;DHT22;28880;48.844;9.030;2022-09-24T06:33:09;11.50;99.90
43285;DHT22;28880;48.844;9.030;2022-09-24T06:35:39;11.60;99.90
43285;DHT22;28880;48.844;9.030;2022-09-24T06:38:06;11.70;99.90
43285;DHT22;28880;48.844;9.030;2022-09-24T06:40:32;11.70;99.90
43285;DHT22;28880;48.844;9.030;2022-09-24T06:42:57;11.80;99.90
43285;DHT22;28880;48.844;9.030;2022-09-24T06:45:23;11.90;99.90
43285;DHT22;28880;48.844;9.030;2022-09-24T06:47:55;12.00;99.90
43285;DHT22;28880;48.844;9.030;2022-09-24T06:50:22;12.10;99.90
43285;DHT22;28880;48.844;9.030;2022-09-24T06:52:48;12.10;99.90
43285;DHT22;28880;48.844;9.030;2022-09-24T06:55:14;12.20;99.90
43285;DHT22;28880;48.844;9.030;2022-09-24T06:57:40;12.30;99.90
43285;DHT22;28880;48.844;9.030;2022-09-24T07:00:06;12.40;99.90
43285;DHT22;28880;48.844;9.030;2022-09-24T07:02:32;12.40;99.90
43285;DHT22;28880;48.844;9.030;2022-09-24T07:04:57;12.50;99.90
43285;DHT22;28880;48.844;9.030;2022-09-24T07:07:23;12.50;99.90
43285;DHT22;28880;48.844;9.030;2022-09-24T07:09:56;12.60;99.90
43285;DHT22;28880;48.844;9.030;2022-09-24T07:12:22;12.60;99.90
43285;DHT22;28880;48.844;9.030;2022-09-24T07:14:47;12.70;99.90
43285;DHT22;28880;48.844;9.030;2022-09-24T07:17:14;12.70;99.90
43285;DHT22;28880;48.844;9.030;2022-09-24T07:19:42;12.70;99.90
43285;DHT22;28880;48.844;9.030;2022-09-24T07:22:08;12.80;99.90
43285;DHT22;28880;48.844;9.030;2022-09-24T07:24:33;12.80;99.90
43285;DHT22;28880;48.844;9.030;2022-09-24T07:26:59;12.90;99.90
43285;DHT22;28880;48.844;9.030;2022-09-24T07:29:24;12.90;99.90
43285;DHT22;28880;48.844;9.030;2022-09-24T07:31:50;13.00;99.90
43285;DHT22;28880;48.844;9.030;2022-09-24T07:34:16;13.00;99.90
43285;DHT22;28880;48.844;9.030;2022-09-24T07:36:41;13.00;99.90
43285;DHT22;28880;48.844;9.030;2022-09-24T07:39:07;13.10;99.90
43285;DHT22;28880;48.844;9.030;2022-09-24T07:41:33;13.20;99.90
43285;DHT22;28880;48.844;9.030;2022-09-24T07:43:59;13.30;99.90
43285;DHT22;28880;48.844;9.030;2022-09-24T07:46:25;13.40;99.90
43285;DHT22;28880;48.844;9.030;2022-09-24T07:48:54;13.40;99.90
43285;DHT22;28880;48.844;9.030;2022-09-24T07:51:21;13.50;99.90
43285;DHT22;28880;48.844;9.030;2022-09-24T07:53:47;13.60;99.90
43285;DHT22;28880;48.844;9.030;2022-09-24T07:56:13;13.60;99.90
43285;DHT22;28880;48.844;9.030;2022-09-24T07:58:39;13.70;99.90
43285;DHT22;28880;48.844;9.030;2022-09-24T08:01:04;13.70;99.90
43285;DHT22;28880;48.844;9.030;2022-09-24T08:03:30;13.80;99.90
43285;DHT22;28880;48.844;9.030;2022-09-24T08:05:55;13.80;99.90
43285;DHT22;28880;48.844;9.030;2022-09-24T08:08:23;13.80;99.90
43285;DHT22;28880;48.844;9.030;2022-09-24T08:10:49;13.80;99.90
43285;DHT22;28880;48.844;9.030;2022-09-24T08:13:14;13.80;99.90
43285;DHT22;28880;48.844;9.030;2022-09-24T08:15:40;13.90;99.90
43285;DHT22;28880;48.844;9.030;2022-09-24T08:18:06;13.90;99.90
43285;DHT22;28880;48.844;9.030;2022-09-24T08:20:32;14.00;99.90
43285;DHT22;28880;48.844;9.030;2022-09-24T08:23:05;14.00;99.90
43285;DHT22;28880;48.844;9.030;2022-09-24T08:25:31;14.10;99.90
43285;DHT22;28880;48.844;9.030;2022-09-24T08:28:04;14.20;99.90
43285;DHT22;28880;48.844;9.030;2022-09-24T08:30:31;14.30;99.90
43285;DHT22;28880;48.844;9.030;2022-09-24T08:32:57;14.40;99.90
43285;DHT22;28880;48.844;9.030;2022-09-24T08:35:22;14.40;99.90
43285;DHT22;28880;48.844;9.030;2022-09-24T08:37:48;14.40;99.90
43285;DHT22;28880;48.844;9.030;2022-09-24T08:40:20;14.50;99.90
43285;DHT22;28880;48.844;9.030;2022-09-24T08:45:15;14.80;99.90
43285;DHT22;28880;48.844;9.030;2022-09-24T08:48:12;14.90;99.90
43285;DHT22;28880;48.844;9.030;2022-09-24T08:50:51;15.00;99.90
43285;DHT22;28880;48.844;9.030;2022-09-24T08:53:33;15.10;99.90
43285;DHT22;28880;48.844;9.030;2022-09-24T08:56:02;15.20;99.90
43285;DHT22;28880;48.844;9.030;2022-09-24T08:58:52;15.50;99.90
43285;DHT22;28880;48.844;9.030;2022-09-24T09:01:45;15.70;99.90
43285;DHT22;28880;48.844;9.030;2022-09-24T09:07:15;15.90;99.90
43285;DHT22;28880;48.844;9.030;2022-09-24T09:17:56;16.20;99.90
43285;DHT22;28880;48.844;9.030;2022-09-24T09:20:35;16.30;99.90
43285;DHT22;28880;48.844;9.030;2022-09-24T09:23:18;16.40;99.90
43285;DHT22;28880;48.844;9.030;2022-09-24T09:25:51;16.50;99.90
43285;DHT22;28880;48.844;9.030;2022-09-24T09:28:19;16.50;99.90
43285;DHT22;28880;48.844;9.030;2022-09-24T09:41:56;16.10;99.90
43285;DHT22;28880;48.844;9.030;2022-09-24T09:44:28;16.00;99.90
43285;DHT22;28880;48.844;9.030;2022-09-24T09:49:34;15.80;99.90
43285;DHT22;28880;48.844;9.030;2022-09-24T09:52:03;15.80;99.90
43285;DHT22;28880;48.844;9.030;2022-09-24T09:54:38;15.80;99.90
43285;DHT22;28880;48.844;9.030;2022-09-24T09:57:05;15.80;99.90
43285;DHT22;28880;48.844;9.030;2022-09-24T09:59:33;15.80;99.90
43285;DHT22;28880;48.844;9.030;2022-09-24T10:02:00;15.90;99.90
43285;DHT22;28880;48.844;9.030;2022-09-24T10:07:17;15.90;99.90
43285;DHT22;28880;48.844;9.030;2022-09-24T10:09:44;15.90;99.90
43285;DHT22;28880;48.844;9.030;2022-09-24T10:12:19;15.90;99.90
43285;DHT22;28880;48.844;9.030;2022-09-24T10:15:16;15.90;99.90
43285;DHT22;28880;48.844;9.030;2022-09-24T10:17:43;15.80;99.90
43285;DHT22;28880;48.844;9.030;2022-09-24T10:20:30;15.80;99.90
43285;DHT22;28880;48.844;9.030;2022-09-24T10:23:01;15.90;99.90
43285;DHT22;28880;48.844;9.030;2022-09-24T10:25:29;15.80;99.90
43285;DHT22;28880;48.844;9.030;2022-09-24T10:28:00;15.70;99.90
43285;DHT22;28880;48.844;9.030;2022-09-24T10:30:51;15.70;99.90
43285;DHT22;28880;48.844;9.030;2022-09-24T10:33:18;15.80;99.90
43285;DHT22;28880;48.844;9.030;2022-09-24T10:35:44;15.70;99.90
43285;DHT22;28880;48.844;9.030;2022-09-24T10:38:20;15.90;99.90
43285;DHT22;28880;48.844;9.030;2022-09-24T10:40:46;16.10;99.90
43285;DHT22;28880;48.844;9.030;2022-09-24T10:43:20;16.20;99.90
43285;DHT22;28880;48.844;9.030;2022-09-24T10:45:58;16.20;99.90
43285;DHT22;28880;48.844;9.030;2022-09-24T10:48:43;16.20;99.90
43285;DHT22;28880;48.844;9.030;2022-09-24T10:51:19;16.40;99.90
43285;DHT22;28880;48.844;9.030;2022-09-24T10:56:37;16.50;99.90
43285;DHT22;28880;48.844;9.030;2022-09-24T11:04:54;16.60;99.90
43285;DHT22;28880;48.844;9.030;2022-09-24T11:12:27;16.70;99.90
43285;DHT22;28880;48.844;9.030;2022-09-24T11:20:32;17.30;99.90
43285;DHT22;28880;48.844;9.030;2022-09-24T11:45:13;16.60;99.90
43285;DHT22;28880;48.844;9.030;2022-09-24T11:55:38;16.40;99.90
43285;DHT22;28880;48.844;9.030;2022-09-24T11:58:25;16.30;99.90
43285;DHT22;28880;48.844;9.030;2022-09-24T12:00:56;16.30;99.90
43285;DHT22;28880;48.844;9.030;2022-09-24T12:06:16;16.10;99.90
43285;DHT22;28880;48.844;9.030;2022-09-24T12:08:52;16.00;99.90
43285;DHT22;28880;48.844;9.030;2022-09-24T12:11:25;16.00;99.90
43285;DHT22;28880;48.844;9.030;2022-09-24T12:14:10;15.90;99.90
43285;DHT22;28880;48.844;9.030;2022-09-24T12:16:37;15.90;99.90
43285;DHT22;28880;48.844;9.030;2022-09-24T12:19:13;15.80;99.90
43285;DHT22;28880;48.844;9.030;2022-09-24T12:21:42;15.70;99.90
43285;DHT22;28880;48.844;9.030;2022-09-24T12:26:44;15.70;99.90
43285;DHT22;28880;48.844;9.030;2022-09-24T12:32:18;15.50;99.90
43285;DHT22;28880;48.844;9.030;2022-09-24T12:37:49;15.30;99.90
43285;DHT22;28880;48.844;9.030;2022-09-24T12:43:29;15.30;99.90
43285;DHT22;28880;48.844;9.030;2022-09-24T12:46:02;15.30;99.90
43285;DHT22;28880;48.844;9.030;2022-09-24T12:48:30;15.30;99.90
43285;DHT22;28880;48.844;9.030;2022-09-24T12:51:01;15.40;99.90
43285;DHT22;28880;48.844;9.030;2022-09-24T12:53:35;15.40;99.90
43285;DHT22;28880;48.844;9.030;2022-09-24T12:56:04;15.40;99.90
43285;DHT22;28880;48.844;9.030;2022-09-24T12:58:41;15.50;99.90
43285;DHT22;28880;48.844;9.030;2022-09-24T13:01:13;15.60;99.90
43285;DHT22;28880;48.844;9.030;2022-09-24T13:06:37;15.90;99.90
43285;DHT22;28880;48.844;9.030;2022-09-24T13:09:33;15.90;99.90
43285;DHT22;28880;48.844;9.030;2022-09-24T13:12:05;15.80;99.90
43285;DHT22;28880;48.844;9.030;2022-09-24T13:14:32;15.80;99.90
43285;DHT22;28880;48.844;9.030;2022-09-24T13:17:04;15.80;99.90
43285;DHT22;28880;48.844;9.030;2022-09-24T13:19:36;15.90;99.90
43285;DHT22;28880;48.844;9.030;2022-09-24T13:22:02;15.90;99.90
43285;DHT22;28880;48.844;9.030;2022-09-24T13:24:49;16.00;99.90
43285;DHT22;28880;48.844;9.030;2022-09-24T13:27:21;16.00;99.90
43285;DHT22;28880;48.844;9.030;2022-09-24T13:29:51;15.90;99.90
43285;DHT22;28880;48.844;9.030;2022-09-24T13:32:20;15.90;99.90
43285;DHT22;28880;48.844;9.030;2022-09-24T13:34:46;15.80;99.90
43285;DHT22;28880;48.844;9.030;2022-09-24T13:37:33;15.90;99.90
43285;DHT22;28880;48.844;9.030;2022-09-24T13:40:14;16.00;99.90
43285;DHT22;28880;48.844;9.030;2022-09-24T13:42:48;16.10;99.90
43285;DHT22;28880;48.844;9.030;2022-09-24T13:45:20;16.30;99.90
43285;DHT22;28880;48.844;9.030;2022-09-24T13:48:04;16.40;99.90
43285;DHT22;28880;48.844;9.030;2022-09-24T13:50:44;16.30;99.90
43285;DHT22;28880;48.844;9.030;2022-09-24T13:55:51;16.30;99.90
43285;DHT22;28880;48.844;9.030;2022-09-24T13:58:30;16.20;99.90
43285;DHT22;28880;48.844;9.030;2022-09-24T14:00:59;16.20;99.90
43285;DHT22;28880;48.844;9.030;2022-09-24T14:03:28;16.20;99.90
43285;DHT22;28880;48.844;9.030;2022-09-24T14:05:54;16.30;99.90
43285;DHT22;28880;48.844;9.030;2022-09-24T14:08:22;16.30;99.90
43285;DHT22;28880;48.844;9.030;2022-09-24T14:10:48;16.30;99.90
43285;DHT22;28880;48.844;9.030;2022-09-24T14:13:20;16.30;99.90
43285;DHT22;28880;48.844;9.030;2022-09-24T14:16:15;16.30;99.90
43285;DHT22;28880;48.844;9.030;2022-09-24T14:18:42;16.30;99.90
43285;DHT22;28880;48.844;9.030;2022-09-24T14:21:21;16.30;99.90
43285;DHT22;28880;48.844;9.030;2022-09-24T14:24:18;16.20;99.90
43285;DHT22;28880;48.844;9.030;2022-09-24T14:26:48;16.20;99.90
43285;DHT22;28880;48.844;9.030;2022-09-24T14:29:51;16.10;99.90
43285;DHT22;28880;48.844;9.030;2022-09-24T14:32:33;16.10;99.90
43285;DHT22;28880;48.844;9.030;2022-09-24T14:35:00;16.10;99.90
43285;DHT22;28880;48.844;9.030;2022-09-24T14:37:31;16.10;99.90
43285;DHT22;28880;48.844;9.030;2022-09-24T14:40:00;16.10;99.90
43285;DHT22;28880;48.844;9.030;2022-09-24T14:44:57;16.10;99.90
43285;DHT22;28880;48.844;9.030;2022-09-24T14:47:25;16.10;99.90
43285;DHT22;28880;48.844;9.030;2022-09-24T14:49:52;16.20;99.90
43285;DHT22;28880;48.844;9.030;2022-09-24T14:52:34;16.30;99.90
43285;DHT22;28880;48.844;9.030;2022-09-24T14:55:19;16.30;99.90
43285;DHT22;28880;48.844;9.030;2022-09-24T14:57:46;16.40;99.90
43285;DHT22;28880;48.844;9.030;2022-09-24T15:02:54;16.50;99.90
43285;DHT22;28880;48.844;9.030;2022-09-24T15:05:25;16.50;99.90
43285;DHT22;28880;48.844;9.030;2022-09-24T15:08:06;16.60;99.90
43285;DHT22;28880;48.844;9.030;2022-09-24T15:10:34;16.50;99.90
43285;DHT22;28880;48.844;9.030;2022-09-24T15:12:59;16.50;99.90
43285;DHT22;28880;48.844;9.030;2022-09-24T15:15:29;16.50;99.90
43285;DHT22;28880;48.844;9.030;2022-09-24T15:17:56;16.50;99.90
43285;DHT22;28880;48.844;9.030;2022-09-24T15:20:22;16.40;99.90
43285;DHT22;28880;48.844;9.030;2022-09-24T15:22:48;16.40;99.90
43285;DHT22;28880;48.844;9.030;2022-09-24T15:25:14;16.40;99.90
43285;DHT22;28880;48.844;9.030;2022-09-24T15:27:40;16.40;99.90
43285;DHT22;28880;48.844;9.030;2022-09-24T15:30:16;16.30;99.90
43285;DHT22;28880;48.844;9.030;2022-09-24T15:32:42;16.30;99.90
43285;DHT22;28880;48.844;9.030;2022-09-24T15:35:08;16.20;99.90
43285;DHT22;28880;48.844;9.030;2022-09-24T15:37:37;16.20;99.90
43285;DHT22;28880;48.844;9.030;2022-09-24T15:40:15;16.10;99.90
43285;DHT22;28880;48.844;9.030;2022-09-24T15:42:41;16.10;99.90
43285;DHT22;28880;48.844;9.030;2022-09-24T15:45:21;16.10;99.90
43285;DHT22;28880;48.844;9.030;2022-09-24T15:47:49;16.00;99.90
43285;DHT22;28880;48.844;9.030;2022-09-24T15:50:14;16.00;99.90
43285;DHT22;28880;48.844;9.030;2022-09-24T15:52:52;16.00;99.90
43285;DHT22;28880;48.844;9.030;2022-09-24T15:55:19;15.90;99.90
43285;DHT22;28880;48.844;9.030;2022-09-24T15:57:45;15.80;99.90
43285;DHT22;28880;48.844;9.030;2022-09-24T16:00:16;15.80;99.90
43285;DHT22;28880;48.844;9.030;2022-09-24T16:02:45;15.70;99.90
43285;DHT22;28880;48.844;9.030;2022-09-24T16:05:13;15.60;99.90
43285;DHT22;28880;48.844;9.030;2022-09-24T16:07:39;15.60;99.90
43285;DHT22;28880;48.844;9.030;2022-09-24T16:10:05;15.70;99.90
43285;DHT22;28880;48.844;9.030;2022-09-24T16:12:31;15.50;99.90
43285;DHT22;28880;48.844;9.030;2022-09-24T16:14:56;15.50;99.90
43285;DHT22;28880;48.844;9.030;2022-09-24T16:17:24;15.40;99.90
43285;DHT22;28880;48.844;9.030;2022-09-24T16:19:50;15.30;99.90
43285;DHT22;28880;48.844;9.030;2022-09-24T16:22:15;15.30;99.90
43285;DHT22;28880;48.844;9.030;2022-09-24T16:24:41;15.20;99.90
43285;DHT22;28880;48.844;9.030;2022-09-24T16:27:07;15.20;99.90
43285;DHT22;28880;48.844;9.030;2022-09-24T16:29:32;15.20;99.90
43285;DHT22;28880;48.844;9.030;2022-09-24T16:31:58;15.20;99.90
43285;DHT22;28880;48.844;9.030;2022-09-24T16:34:23;15.20;99.90
43285;DHT22;28880;48.844;9.030;2022-09-24T16:36:49;15.20;99.90
43285;DHT22;28880;48.844;9.030;2022-09-24T16:39:15;15.10;99.90
43285;DHT22;28880;48.844;9.030;2022-09-24T16:41:40;15.10;99.90
43285;DHT22;28880;48.844;9.030;2022-09-24T16:44:06;15.10;99.90
43285;DHT22;28880;48.844;9.030;2022-09-24T16:46:32;15.10;99.90
43285;DHT22;28880;48.844;9.030;2022-09-24T16:48:58;15.00;99.90
43285;DHT22;28880;48.844;9.030;2022-09-24T16:51:23;15.00;99.90
43285;DHT22;28880;48.844;9.030;2022-09-24T16:53:55;14.90;99.90
43285;DHT22;28880;48.844;9.030;2022-09-24T16:56:21;14.90;99.90
43285;DHT22;28880;48.844;9.030;2022-09-24T16:58:46;14.80;99.90
43285;DHT22;28880;48.844;9.030;2022-09-24T17:01:14;14.80;99.90
43285;DHT22;28880;48.844;9.030;2022-09-24T17:03:40;14.70;99.90
43285;DHT22;28880;48.844;9.030;2022-09-24T17:06:06;14.70;99.90
43285;DHT22;28880;48.844;9.030;2022-09-24T17:08:34;14.70;99.90
43285;DHT22;28880;48.844;9.030;2022-09-24T17:11:19;14.60;99.90
43285;DHT22;28880;48.844;9.030;2022-09-24T17:13:44;14.60;99.90
43285;DHT22;28880;48.844;9.030;2022-09-24T17:16:12;14.60;99.90
43285;DHT22;28880;48.844;9.030;2022-09-24T17:18:38;14.60;99.90
43285;DHT22;28880;48.844;9.030;2022-09-24T17:21:07;14.50;99.90
43285;DHT22;28880;48.844;9.030;2022-09-24T17:23:33;14.50;99.90
43285;DHT22;28880;48.844;9.030;2022-09-24T17:26:03;14.60;99.90
43285;DHT22;28880;48.844;9.030;2022-09-24T17:28:37;14.50;99.90
43285;DHT22;28880;48.844;9.030;2022-09-24T17:31:04;14.50;99.90
43285;DHT22;28880;48.844;9.030;2022-09-24T17:33:31;14.50;99.90
43285;DHT22;28880;48.844;9.030;2022-09-24T17:35:58;14.50;99.90
43285;DHT22;28880;48.844;9.030;2022-09-24T17:38:25;14.50;99.90
43285;DHT22;28880;48.844;9.030;2022-09-24T17:40:59;14.40;99.90
43285;DHT22;28880;48.844;9.030;2022-09-24T17:43:26;14.50;99.90
43285;DHT22;28880;48.844;9.030;2022-09-24T17:45:59;14.40;99.90